createdAt,value
2023-08-08T00:00:56.477Z,16.17
2023-08-08T00:02:11.056Z,16.17
2023-08-08T00:03:14.729Z,16.20
2023-08-08T00:04:17.715Z,16.24
2023-08-08T00:05:20.715Z,16.25
2023-08-08T00:06:23.577Z,16.25
2023-08-08T00:07:26.529Z,16.24
2023-08-08T00:08:29.382Z,16.25
2023-08-08T00:09:32.224Z,16.27
2023-08-08T00:10:35.189Z,16.29
2023-08-08T00:11:38.032Z,16.28
2023-08-08T00:12:40.825Z,16.28
2023-08-08T00:13:43.928Z,16.29
2023-08-08T00:14:46.772Z,16.31
2023-08-08T00:15:49.754Z,16.32
2023-08-08T00:16:52.683Z,16.33
2023-08-08T00:17:55.857Z,16.33
2023-08-08T00:18:58.672Z,16.35
2023-08-08T00:20:01.716Z,16.35
2023-08-08T00:21:05.119Z,16.37
2023-08-08T00:22:08.019Z,16.38
2023-08-08T00:23:10.921Z,16.41
2023-08-08T00:24:13.805Z,16.43
2023-08-08T00:25:16.685Z,16.43
2023-08-08T00:26:19.519Z,16.45
2023-08-08T00:27:22.544Z,16.46
2023-08-08T00:28:25.884Z,16.47
2023-08-08T00:29:29.809Z,16.46
2023-08-08T00:30:32.734Z,16.47
2023-08-08T00:31:35.759Z,16.47
2023-08-08T00:32:38.803Z,16.48
2023-08-08T00:33:41.726Z,16.48
2023-08-08T00:34:44.695Z,16.48
2023-08-08T00:35:47.598Z,16.48
2023-08-08T00:36:50.840Z,16.51
2023-08-08T00:37:54.418Z,16.51
2023-08-08T00:38:57.269Z,16.52
2023-08-08T00:40:00.209Z,16.52
2023-08-08T00:41:03.158Z,16.53
2023-08-08T00:42:06.449Z,16.53
2023-08-08T00:43:09.265Z,16.53
2023-08-08T00:44:12.097Z,16.54
2023-08-08T00:45:15.079Z,16.54
2023-08-08T00:46:23.572Z,16.54
2023-08-08T00:47:26.827Z,16.54
2023-08-08T00:48:29.757Z,16.53
2023-08-08T00:49:32.636Z,16.55
2023-08-08T00:50:37.515Z,16.55
2023-08-08T00:51:40.416Z,16.55
2023-08-08T00:52:44.509Z,16.55
2023-08-08T00:53:48.582Z,16.54
2023-08-08T00:54:51.568Z,16.56
2023-08-08T00:55:55.481Z,16.56
2023-08-08T00:56:58.479Z,16.56
2023-08-08T00:58:01.600Z,16.58
2023-08-08T00:59:05.759Z,16.58
2023-08-08T01:00:12.848Z,16.56
2023-08-08T01:01:16.128Z,16.57
2023-08-08T01:02:20.979Z,16.56
2023-08-08T01:03:24.014Z,16.57
2023-08-08T01:04:28.233Z,16.56
2023-08-08T01:05:44.615Z,16.55
2023-08-08T01:06:59.215Z,16.54
2023-08-08T01:08:07.838Z,16.53
2023-08-08T01:09:20.550Z,16.54
2023-08-08T01:10:29.553Z,16.54
2023-08-08T01:11:35.894Z,16.55
2023-08-08T01:12:46.267Z,16.55
2023-08-08T01:13:51.475Z,16.56
2023-08-08T01:14:55.778Z,16.56
2023-08-08T01:15:58.995Z,16.56
2023-08-08T01:17:02.970Z,16.56
2023-08-08T01:18:07.516Z,16.55
2023-08-08T01:19:16.175Z,16.55
2023-08-08T01:20:19.532Z,16.57
2023-08-08T01:21:22.414Z,16.55
2023-08-08T01:22:36.818Z,16.55
2023-08-08T01:23:47.314Z,16.54
2023-08-08T01:24:50.972Z,16.53
2023-08-08T01:25:55.166Z,16.53
2023-08-08T01:26:58.460Z,16.52
2023-08-08T01:28:01.566Z,16.52
2023-08-08T01:29:04.459Z,16.51
2023-08-08T01:30:10.559Z,16.51
2023-08-08T01:32:50.594Z,16.49
2023-08-08T01:33:53.592Z,16.49
2023-08-08T01:34:56.510Z,16.50
2023-08-08T01:36:10.337Z,16.51
2023-08-08T01:37:40.608Z,16.51
2023-08-08T01:38:47.915Z,16.52
2023-08-08T01:39:52.032Z,16.52
2023-08-08T01:40:57.672Z,16.54
2023-08-08T01:42:02.825Z,16.55
2023-08-08T01:43:06.290Z,16.56
2023-08-08T01:44:10.089Z,16.57
2023-08-08T01:45:13.717Z,16.57
2023-08-08T01:46:16.823Z,16.56
2023-08-08T01:47:19.636Z,16.56
2023-08-08T01:48:22.425Z,16.54
2023-08-08T01:49:25.712Z,16.54
2023-08-08T01:50:28.890Z,16.54
2023-08-08T01:51:31.900Z,16.53
2023-08-08T01:52:34.720Z,16.54
2023-08-08T01:53:39.686Z,16.55
2023-08-08T01:54:43.574Z,16.55
2023-08-08T01:55:46.444Z,16.55
2023-08-08T01:56:49.327Z,16.56
2023-08-08T01:57:52.575Z,16.55
2023-08-08T01:58:55.464Z,16.45
2023-08-08T01:59:58.539Z,16.31
2023-08-08T02:01:01.372Z,16.17
2023-08-08T02:02:04.617Z,16.02
2023-08-08T02:03:08.002Z,15.88
2023-08-08T02:04:11.374Z,15.76
2023-08-08T02:05:15.278Z,15.65
2023-08-08T02:06:18.217Z,15.55
2023-08-08T02:07:21.675Z,15.47
2023-08-08T02:08:24.724Z,15.43
2023-08-08T02:09:28.118Z,15.48
2023-08-08T02:10:31.052Z,15.57
2023-08-08T02:11:33.931Z,15.66
2023-08-08T02:12:36.829Z,15.76
2023-08-08T02:13:39.659Z,15.84
2023-08-08T02:14:42.590Z,15.92
2023-08-08T02:15:45.728Z,15.97
2023-08-08T02:16:48.585Z,16.02
2023-08-08T02:17:51.606Z,16.07
2023-08-08T02:18:54.500Z,16.12
2023-08-08T02:19:57.821Z,16.15
2023-08-08T02:21:00.907Z,16.20
2023-08-08T02:22:03.940Z,16.23
2023-08-08T02:23:06.984Z,16.25
2023-08-08T02:24:10.193Z,16.27
2023-08-08T02:25:13.191Z,16.27
2023-08-08T02:26:16.412Z,16.28
2023-08-08T02:27:19.531Z,16.29
2023-08-08T02:28:22.490Z,16.29
2023-08-08T02:29:25.401Z,16.30
2023-08-08T02:30:28.308Z,16.31
2023-08-08T02:31:31.259Z,16.31
2023-08-08T02:32:34.230Z,16.33
2023-08-08T02:33:37.113Z,16.32
2023-08-08T02:34:40.061Z,16.34
2023-08-08T02:35:43.473Z,16.36
2023-08-08T02:36:46.762Z,16.36
2023-08-08T02:37:49.837Z,16.38
2023-08-08T02:38:54.605Z,16.37
2023-08-08T02:39:57.630Z,16.37
2023-08-08T02:41:00.478Z,16.37
2023-08-08T02:42:03.699Z,16.38
2023-08-08T02:43:06.658Z,16.39
2023-08-08T02:44:09.609Z,16.39
2023-08-08T02:45:12.648Z,16.42
2023-08-08T02:46:15.549Z,16.41
2023-08-08T02:47:18.477Z,16.40
2023-08-08T02:48:21.473Z,16.40
2023-08-08T02:49:24.382Z,16.41
2023-08-08T02:50:27.316Z,16.41
2023-08-08T02:51:30.551Z,16.40
2023-08-08T02:52:33.486Z,16.39
2023-08-08T02:53:36.538Z,16.38
2023-08-08T02:54:39.428Z,16.38
2023-08-08T02:55:42.288Z,16.40
2023-08-08T02:56:45.234Z,16.40
2023-08-08T02:57:48.404Z,16.40
2023-08-08T02:58:51.371Z,16.40
2023-08-08T02:59:54.258Z,16.39
2023-08-08T03:00:57.191Z,16.39
2023-08-08T03:02:01.744Z,16.39
2023-08-08T03:03:05.147Z,16.39
2023-08-08T03:04:08.682Z,16.37
2023-08-08T03:05:11.830Z,16.38
2023-08-08T03:06:15.032Z,16.38
2023-08-08T03:07:18.118Z,16.36
2023-08-08T03:08:21.807Z,16.36
2023-08-08T03:09:24.764Z,16.35
2023-08-08T03:10:27.727Z,16.36
2023-08-08T03:11:30.592Z,16.37
2023-08-08T03:12:33.485Z,16.37
2023-08-08T03:13:38.438Z,16.36
2023-08-08T03:14:41.368Z,16.36
2023-08-08T03:15:44.415Z,16.36
2023-08-08T03:16:47.415Z,16.36
2023-08-08T03:17:50.460Z,16.37
2023-08-08T03:18:54.205Z,16.36
2023-08-08T03:19:57.109Z,16.35
2023-08-08T03:21:01.718Z,16.35
2023-08-08T03:22:06.618Z,16.36
2023-08-08T03:23:10.720Z,16.37
2023-08-08T03:24:14.094Z,16.38
2023-08-08T03:25:17.157Z,16.40
2023-08-08T03:26:20.042Z,16.43
2023-08-08T03:27:22.984Z,16.41
2023-08-08T03:28:27.964Z,16.40
2023-08-08T03:29:32.065Z,16.41
2023-08-08T03:30:38.520Z,16.43
2023-08-08T03:31:42.155Z,16.44
2023-08-08T03:32:45.064Z,16.45
2023-08-08T03:33:48.897Z,16.46
2023-08-08T03:34:52.193Z,16.46
2023-08-08T03:35:55.011Z,16.45
2023-08-08T03:36:58.069Z,16.47
2023-08-08T03:38:01.545Z,16.47
2023-08-08T03:39:04.775Z,16.48
2023-08-08T03:40:11.967Z,16.48
2023-08-08T03:41:15.016Z,16.49
2023-08-08T03:42:18.017Z,16.48
2023-08-08T03:43:20.891Z,16.49
2023-08-08T03:44:24.258Z,16.49
2023-08-08T03:45:27.144Z,16.51
2023-08-08T03:46:30.919Z,16.51
2023-08-08T03:47:34.037Z,16.52
2023-08-08T03:48:37.256Z,16.52
2023-08-08T03:49:40.064Z,16.52
2023-08-08T03:50:43.132Z,16.52
2023-08-08T03:51:46.027Z,16.53
2023-08-08T03:52:48.908Z,16.55
2023-08-08T03:53:51.765Z,16.55
2023-08-08T03:54:54.865Z,16.57
2023-08-08T03:55:59.009Z,16.58
2023-08-08T03:57:02.421Z,16.58
2023-08-08T03:58:06.506Z,16.56
2023-08-08T03:59:10.998Z,16.55
2023-08-08T04:00:14.172Z,16.56
2023-08-08T04:01:17.044Z,16.55
2023-08-08T04:02:19.976Z,16.55
2023-08-08T04:03:24.571Z,16.55
2023-08-08T04:04:27.444Z,16.56
2023-08-08T04:05:30.380Z,16.56
2023-08-08T04:06:33.251Z,16.58
2023-08-08T04:07:36.419Z,16.59
2023-08-08T04:08:39.254Z,16.61
2023-08-08T04:09:44.781Z,16.61
2023-08-08T04:10:48.380Z,16.62
2023-08-08T04:11:52.433Z,16.63
2023-08-08T04:13:20.383Z,16.65
2023-08-08T04:14:23.215Z,16.65
2023-08-08T04:15:26.136Z,16.64
2023-08-08T04:16:29.570Z,16.64
2023-08-08T04:17:32.655Z,16.64
2023-08-08T04:18:35.483Z,16.65
2023-08-08T04:19:38.428Z,16.65
2023-08-08T04:20:41.360Z,16.67
2023-08-08T04:21:44.178Z,16.68
2023-08-08T04:22:47.268Z,16.68
2023-08-08T04:23:50.254Z,16.69
2023-08-08T04:24:53.112Z,16.70
2023-08-08T04:25:56.094Z,16.69
2023-08-08T04:26:59.208Z,16.68
2023-08-08T04:28:02.133Z,16.68
2023-08-08T04:29:06.568Z,16.67
2023-08-08T04:30:10.546Z,16.67
2023-08-08T04:31:13.499Z,16.68
2023-08-08T04:32:16.824Z,16.69
2023-08-08T04:33:19.724Z,16.69
2023-08-08T04:34:23.110Z,16.71
2023-08-08T04:35:28.397Z,16.69
2023-08-08T04:36:33.825Z,16.68
2023-08-08T04:37:36.701Z,16.66
2023-08-08T04:38:39.634Z,16.65
2023-08-08T04:39:42.732Z,16.65
2023-08-08T04:40:46.509Z,16.63
2023-08-08T04:41:49.702Z,16.63
2023-08-08T04:42:53.227Z,16.63
2023-08-08T04:43:56.129Z,16.64
2023-08-08T04:44:58.925Z,16.62
2023-08-08T04:46:01.867Z,16.60
2023-08-08T04:47:05.775Z,16.60
2023-08-08T04:48:08.727Z,16.61
2023-08-08T04:49:11.816Z,16.60
2023-08-08T04:50:14.780Z,16.58
2023-08-08T04:51:17.805Z,16.58
2023-08-08T04:52:20.692Z,16.59
2023-08-08T04:53:23.628Z,16.60
2023-08-08T04:54:26.525Z,16.60
2023-08-08T04:55:29.495Z,16.62
2023-08-08T04:56:32.381Z,16.63
2023-08-08T04:57:35.270Z,16.64
2023-08-08T04:58:38.143Z,16.64
2023-08-08T04:59:41.270Z,16.65
2023-08-08T05:00:44.205Z,16.69
2023-08-08T05:01:47.084Z,16.71
2023-08-08T05:02:50.048Z,16.72
2023-08-08T05:03:54.643Z,16.73
2023-08-08T05:04:59.318Z,16.72
2023-08-08T05:06:03.013Z,16.74
2023-08-08T05:07:07.088Z,16.78
2023-08-08T05:08:09.882Z,16.78
2023-08-08T05:09:12.830Z,16.78
2023-08-08T05:10:15.768Z,16.77
2023-08-08T05:11:18.654Z,16.76
2023-08-08T05:12:21.532Z,16.75
2023-08-08T05:13:24.445Z,16.76
2023-08-08T05:14:27.334Z,16.74
2023-08-08T05:15:30.264Z,16.73
2023-08-08T05:16:33.286Z,16.75
2023-08-08T05:17:36.282Z,16.77
2023-08-08T05:18:39.183Z,16.79
2023-08-08T05:19:42.032Z,16.82
2023-08-08T05:20:44.913Z,16.82
2023-08-08T05:21:48.525Z,16.84
2023-08-08T05:22:52.668Z,16.83
2023-08-08T05:23:55.693Z,16.82
2023-08-08T05:24:58.678Z,16.83
2023-08-08T05:26:01.598Z,16.84
2023-08-08T05:27:04.983Z,16.86
2023-08-08T05:28:08.043Z,16.87
2023-08-08T05:29:13.008Z,16.89
2023-08-08T05:30:15.860Z,16.90
2023-08-08T05:31:19.102Z,16.92
2023-08-08T05:32:22.179Z,16.94
2023-08-08T05:33:25.058Z,16.96
2023-08-08T05:34:27.940Z,16.97
2023-08-08T05:35:31.627Z,16.99
2023-08-08T05:36:34.699Z,17.01
2023-08-08T05:37:37.573Z,17.03
2023-08-08T05:38:40.561Z,17.06
2023-08-08T05:39:43.818Z,17.07
2023-08-08T05:40:46.807Z,17.09
2023-08-08T05:41:49.684Z,17.13
2023-08-08T05:42:52.670Z,17.16
2023-08-08T05:43:55.513Z,17.19
2023-08-08T05:44:58.999Z,17.21
2023-08-08T05:46:02.079Z,17.25
2023-08-08T05:47:05.373Z,17.27
2023-08-08T05:48:08.527Z,17.28
2023-08-08T05:49:11.534Z,17.31
2023-08-08T05:50:14.525Z,17.36
2023-08-08T05:51:17.615Z,17.36
2023-08-08T05:52:22.479Z,17.26
2023-08-08T05:53:25.881Z,17.12
2023-08-08T05:54:29.304Z,16.97
2023-08-08T05:55:32.488Z,16.83
2023-08-08T05:56:39.053Z,16.71
2023-08-08T05:57:42.305Z,16.60
2023-08-08T05:58:45.486Z,16.52
2023-08-08T05:59:49.604Z,16.45
2023-08-08T06:00:53.550Z,16.40
2023-08-08T06:01:56.912Z,16.37
2023-08-08T06:03:00.105Z,16.33
2023-08-08T06:04:04.633Z,16.30
2023-08-08T06:05:08.628Z,16.34
2023-08-08T06:06:11.547Z,16.45
2023-08-08T06:07:14.454Z,16.57
2023-08-08T06:08:17.742Z,16.68
2023-08-08T06:09:20.813Z,16.78
2023-08-08T06:10:23.981Z,16.87
2023-08-08T06:11:26.883Z,16.94
2023-08-08T06:12:29.790Z,17.02
2023-08-08T06:13:32.837Z,17.09
2023-08-08T06:14:35.790Z,17.15
2023-08-08T06:15:38.851Z,17.18
2023-08-08T06:16:42.620Z,17.22
2023-08-08T06:17:45.573Z,17.25
2023-08-08T06:18:48.738Z,17.22
2023-08-08T06:19:51.667Z,17.12
2023-08-08T06:20:54.571Z,17.00
2023-08-08T06:21:57.644Z,16.89
2023-08-08T06:23:00.542Z,16.77
2023-08-08T06:24:03.580Z,16.68
2023-08-08T06:25:07.120Z,16.59
2023-08-08T06:26:10.569Z,16.52
2023-08-08T06:27:15.209Z,16.46
2023-08-08T06:28:18.229Z,16.41
2023-08-08T06:29:21.270Z,16.36
2023-08-08T06:30:24.403Z,16.32
2023-08-08T06:31:27.440Z,16.30
2023-08-08T06:32:30.312Z,16.28
2023-08-08T06:33:33.193Z,16.26
2023-08-08T06:34:36.137Z,16.24
2023-08-08T06:35:40.463Z,16.22
2023-08-08T06:36:43.931Z,16.20
2023-08-08T06:37:46.737Z,16.18
2023-08-08T06:38:49.716Z,16.19
2023-08-08T06:39:52.543Z,16.18
2023-08-08T06:40:57.177Z,16.20
2023-08-08T06:42:00.145Z,16.25
2023-08-08T06:43:14.601Z,16.31
2023-08-08T06:44:17.483Z,16.37
2023-08-08T06:45:20.393Z,16.40
2023-08-08T06:46:23.824Z,16.44
2023-08-08T06:47:26.940Z,16.48
2023-08-08T06:48:29.957Z,16.51
2023-08-08T06:49:32.848Z,16.55
2023-08-08T06:50:35.926Z,16.57
2023-08-08T06:51:38.798Z,16.59
2023-08-08T06:52:41.661Z,16.60
2023-08-08T06:53:44.683Z,16.61
2023-08-08T06:54:47.783Z,16.61
2023-08-08T06:55:50.709Z,16.62
2023-08-08T06:56:53.767Z,16.64
2023-08-08T06:57:56.600Z,16.65
2023-08-08T06:58:59.817Z,16.67
2023-08-08T07:00:06.477Z,16.70
2023-08-08T07:01:09.865Z,16.71
2023-08-08T07:02:12.818Z,16.71
2023-08-08T07:03:15.809Z,16.72
2023-08-08T07:04:19.231Z,16.74
2023-08-08T07:05:23.721Z,16.75
2023-08-08T07:06:26.694Z,16.77
2023-08-08T07:07:31.264Z,16.77
2023-08-08T07:08:34.183Z,16.79
2023-08-08T07:09:38.477Z,16.81
2023-08-08T07:10:41.329Z,16.81
2023-08-08T07:11:44.639Z,16.81
2023-08-08T07:12:47.729Z,16.81
2023-08-08T07:13:50.593Z,16.80
2023-08-08T07:14:53.512Z,16.80
2023-08-08T07:15:56.527Z,16.78
2023-08-08T07:16:59.802Z,16.77
2023-08-08T07:18:02.815Z,16.79
2023-08-08T07:19:07.242Z,16.81
2023-08-08T07:20:14.879Z,16.81
2023-08-08T07:21:17.874Z,16.82
2023-08-08T07:22:20.820Z,16.84
2023-08-08T07:23:24.182Z,16.86
2023-08-08T07:24:29.703Z,16.88
2023-08-08T07:25:32.588Z,16.91
2023-08-08T07:26:35.431Z,16.92
2023-08-08T07:27:38.746Z,16.95
2023-08-08T07:28:41.894Z,16.97
2023-08-08T07:29:44.834Z,16.98
2023-08-08T07:30:47.834Z,16.99
2023-08-08T07:31:53.347Z,17.04
2023-08-08T07:32:56.430Z,17.07
2023-08-08T07:33:59.614Z,17.10
2023-08-08T07:35:03.902Z,17.13
2023-08-08T07:36:07.089Z,17.15
2023-08-08T07:37:10.027Z,17.17
2023-08-08T07:38:12.983Z,17.22
2023-08-08T07:39:16.099Z,17.25
2023-08-08T07:40:20.463Z,17.27
2023-08-08T07:41:25.431Z,17.30
2023-08-08T07:42:28.619Z,17.35
2023-08-08T07:43:31.602Z,17.39
2023-08-08T07:44:35.842Z,17.43
2023-08-08T07:45:39.006Z,17.46
2023-08-08T07:46:42.160Z,17.49
2023-08-08T07:47:45.039Z,17.49
2023-08-08T07:48:48.035Z,17.49
2023-08-08T07:49:51.015Z,17.49
2023-08-08T07:50:54.223Z,17.51
2023-08-08T07:51:57.148Z,17.53
2023-08-08T07:53:00.121Z,17.54
2023-08-08T07:54:03.394Z,17.54
2023-08-08T07:55:06.915Z,17.55
2023-08-08T07:56:09.804Z,17.56
2023-08-08T07:57:12.652Z,17.59
2023-08-08T07:58:15.979Z,17.59
2023-08-08T07:59:18.930Z,17.59
2023-08-08T08:00:22.882Z,17.56
2023-08-08T08:01:28.353Z,17.55
2023-08-08T08:02:31.645Z,17.52
2023-08-08T08:03:34.772Z,17.48
2023-08-08T08:04:37.665Z,17.46
2023-08-08T08:05:40.536Z,17.45
2023-08-08T08:06:45.016Z,17.42
2023-08-08T08:07:48.925Z,17.41
2023-08-08T08:08:51.983Z,17.39
2023-08-08T08:09:54.922Z,17.39
2023-08-08T08:10:57.912Z,17.39
2023-08-08T08:12:00.993Z,17.43
2023-08-08T08:13:04.339Z,17.48
2023-08-08T08:14:07.297Z,17.53
2023-08-08T08:15:11.497Z,17.61
2023-08-08T08:16:14.611Z,17.65
2023-08-08T08:17:17.561Z,17.69
2023-08-08T08:18:21.287Z,17.73
2023-08-08T08:19:24.369Z,17.76
2023-08-08T08:20:27.319Z,17.76
2023-08-08T08:21:30.888Z,17.73
2023-08-08T08:22:33.875Z,17.71
2023-08-08T08:23:36.847Z,17.68
2023-08-08T08:24:39.741Z,17.63
2023-08-08T08:25:42.898Z,17.59
2023-08-08T08:26:45.785Z,17.54
2023-08-08T08:27:48.693Z,17.52
2023-08-08T08:28:51.668Z,17.50
2023-08-08T08:29:54.628Z,17.48
2023-08-08T08:30:57.568Z,17.48
2023-08-08T08:32:00.891Z,17.51
2023-08-08T08:33:05.455Z,17.53
2023-08-08T08:34:08.439Z,17.54
2023-08-08T08:35:13.777Z,17.54
2023-08-08T08:36:16.747Z,17.54
2023-08-08T08:37:19.622Z,17.54
2023-08-08T08:38:22.421Z,17.56
2023-08-08T08:39:25.296Z,17.58
2023-08-08T08:40:30.432Z,17.61
2023-08-08T08:41:36.552Z,17.63
2023-08-08T08:42:41.433Z,17.68
2023-08-08T08:43:44.716Z,17.72
2023-08-08T08:44:48.649Z,17.80
2023-08-08T08:45:54.100Z,17.86
2023-08-08T08:46:59.739Z,17.94
2023-08-08T08:48:03.126Z,18.01
2023-08-08T08:49:09.717Z,18.08
2023-08-08T08:50:15.358Z,18.13
2023-08-08T08:51:19.840Z,18.15
2023-08-08T08:52:23.897Z,18.14
2023-08-08T08:53:27.460Z,18.12
2023-08-08T08:54:33.619Z,18.11
2023-08-08T08:55:36.490Z,18.10
2023-08-08T08:56:39.418Z,18.07
2023-08-08T08:57:45.774Z,18.06
2023-08-08T08:58:48.610Z,18.04
2023-08-08T08:59:52.254Z,18.03
2023-08-08T09:00:55.652Z,17.98
2023-08-08T09:01:58.897Z,17.95
2023-08-08T09:03:02.664Z,17.91
2023-08-08T09:04:09.042Z,17.89
2023-08-08T09:05:14.489Z,17.87
2023-08-08T09:06:20.333Z,17.85
2023-08-08T09:07:27.692Z,17.84
2023-08-08T09:08:30.870Z,17.85
2023-08-08T09:09:34.038Z,17.86
2023-08-08T09:10:36.964Z,17.88
2023-08-08T09:11:41.247Z,17.92
2023-08-08T09:12:45.243Z,17.96
2023-08-08T09:13:48.210Z,18.01
2023-08-08T09:14:59.058Z,18.06
2023-08-08T09:16:01.927Z,18.10
2023-08-08T09:17:05.048Z,18.14
2023-08-08T09:18:08.953Z,18.18
2023-08-08T09:19:11.963Z,18.23
2023-08-08T09:20:15.352Z,18.29
2023-08-08T09:21:19.694Z,18.35
2023-08-08T09:22:22.703Z,18.41
2023-08-08T09:23:25.508Z,18.45
2023-08-08T09:24:28.723Z,18.48
2023-08-08T09:25:31.973Z,18.51
2023-08-08T09:26:35.684Z,18.51
2023-08-08T09:27:39.144Z,18.51
2023-08-08T09:28:42.247Z,18.51
2023-08-08T09:29:45.446Z,18.50
2023-08-08T09:30:48.599Z,18.52
2023-08-08T09:31:51.715Z,18.55
2023-08-08T09:32:54.798Z,18.54
2023-08-08T09:33:59.398Z,18.54
2023-08-08T09:35:03.316Z,18.54
2023-08-08T09:36:06.647Z,18.53
2023-08-08T09:37:11.590Z,18.52
2023-08-08T09:38:14.678Z,18.51
2023-08-08T09:39:17.763Z,18.51
2023-08-08T09:40:22.582Z,18.50
2023-08-08T09:41:26.275Z,18.50
2023-08-08T09:42:30.603Z,18.48
2023-08-08T09:43:33.672Z,18.43
2023-08-08T09:44:36.672Z,18.40
2023-08-08T09:45:42.823Z,18.38
2023-08-08T09:46:46.218Z,18.39
2023-08-08T09:47:51.180Z,18.41
2023-08-08T09:48:55.618Z,18.41
2023-08-08T09:50:01.477Z,18.42
2023-08-08T09:51:05.849Z,18.47
2023-08-08T09:52:09.006Z,18.51
2023-08-08T09:53:13.598Z,18.55
2023-08-08T09:54:17.349Z,18.59
2023-08-08T09:55:20.969Z,18.64
2023-08-08T09:56:27.023Z,18.69
2023-08-08T09:57:30.908Z,18.73
2023-08-08T09:58:34.724Z,18.78
2023-08-08T09:59:38.743Z,18.80
2023-08-08T10:00:42.502Z,18.81
2023-08-08T10:01:47.705Z,18.82
2023-08-08T10:02:51.146Z,18.82
2023-08-08T10:03:55.021Z,18.83
2023-08-08T10:04:59.642Z,18.83
2023-08-08T10:06:02.745Z,18.82
2023-08-08T10:07:05.993Z,18.84
2023-08-08T10:08:08.976Z,18.86
2023-08-08T10:09:13.040Z,18.87
2023-08-08T10:10:16.858Z,18.88
2023-08-08T10:11:23.475Z,18.88
2023-08-08T10:12:27.660Z,18.90
2023-08-08T10:13:30.507Z,18.91
2023-08-08T10:14:37.560Z,18.96
2023-08-08T10:15:41.298Z,19.02
2023-08-08T10:16:47.367Z,19.11
2023-08-08T10:17:55.342Z,19.20
2023-08-08T10:19:03.414Z,19.31
2023-08-08T10:20:12.481Z,19.42
2023-08-08T10:21:15.808Z,19.53
2023-08-08T10:22:24.481Z,19.61
2023-08-08T10:23:27.908Z,19.69
2023-08-08T10:24:35.706Z,19.76
2023-08-08T10:25:38.837Z,19.80
2023-08-08T10:27:03.359Z,19.83
2023-08-08T10:28:25.365Z,19.87
2023-08-08T10:29:32.865Z,19.89
2023-08-08T10:30:53.444Z,19.92
2023-08-08T10:32:07.738Z,19.95
2023-08-08T10:33:20.639Z,19.99
2023-08-08T10:34:37.665Z,20.02
2023-08-08T10:35:41.091Z,20.03
2023-08-08T10:36:51.845Z,20.04
2023-08-08T10:37:55.864Z,20.03
2023-08-08T10:38:59.596Z,20.01
2023-08-08T10:40:07.253Z,20.00
2023-08-08T10:41:12.705Z,20.01
2023-08-08T10:42:19.894Z,20.01
2023-08-08T10:43:30.096Z,20.01
2023-08-08T10:44:42.981Z,20.01
2023-08-08T10:45:51.968Z,20.05
2023-08-08T10:47:01.585Z,20.07
2023-08-08T10:48:11.021Z,20.10
2023-08-08T10:49:16.065Z,20.12
2023-08-08T10:50:24.051Z,20.12
2023-08-08T10:51:36.939Z,20.13
2023-08-08T10:52:54.883Z,20.12
2023-08-08T10:53:58.476Z,20.13
2023-08-08T10:55:02.794Z,20.13
2023-08-08T10:56:05.677Z,20.12
2023-08-08T10:57:17.762Z,20.12
2023-08-08T10:58:21.265Z,20.14
2023-08-08T10:59:37.148Z,20.16
2023-08-08T11:00:40.951Z,20.17
2023-08-08T11:01:47.521Z,20.18
2023-08-08T11:02:51.977Z,20.19
2023-08-08T11:03:55.480Z,20.19
2023-08-08T11:05:00.294Z,20.22
2023-08-08T11:06:04.599Z,20.24
2023-08-08T11:07:07.669Z,20.28
2023-08-08T11:08:11.189Z,20.35
2023-08-08T11:09:15.468Z,20.39
2023-08-08T11:10:19.135Z,20.43
2023-08-08T11:11:22.067Z,20.47
2023-08-08T11:12:27.639Z,20.48
2023-08-08T11:13:30.739Z,20.46
2023-08-08T11:14:33.729Z,20.43
2023-08-08T11:15:39.133Z,20.38
2023-08-08T11:16:44.389Z,20.35
2023-08-08T11:17:47.392Z,20.29
2023-08-08T11:18:50.315Z,20.22
2023-08-08T11:19:53.245Z,20.16
2023-08-08T11:21:05.244Z,20.09
2023-08-08T11:22:15.877Z,20.03
2023-08-08T11:23:19.946Z,19.98
2023-08-08T11:24:22.891Z,19.95
2023-08-08T11:25:31.275Z,19.91
2023-08-08T11:26:35.674Z,19.87
2023-08-08T11:28:53.452Z,19.70
2023-08-08T11:29:58.012Z,19.60
2023-08-08T11:31:00.954Z,19.50
2023-08-08T11:32:04.719Z,19.41
2023-08-08T11:34:17.024Z,19.13
2023-08-08T11:35:23.723Z,19.04
2023-08-08T11:36:36.754Z,18.94
2023-08-08T11:37:40.111Z,18.85
2023-08-08T11:38:44.680Z,18.75
2023-08-08T11:39:47.967Z,18.67
2023-08-08T11:40:51.193Z,18.59
2023-08-08T11:41:55.738Z,18.51
2023-08-08T11:43:00.178Z,18.50
2023-08-08T11:44:05.144Z,18.56
2023-08-08T11:45:10.601Z,18.63
2023-08-08T11:46:14.085Z,18.74
2023-08-08T11:47:17.051Z,18.86
2023-08-08T11:48:23.320Z,19.00
2023-08-08T11:49:26.232Z,19.22
2023-08-08T11:50:30.791Z,19.41
2023-08-08T11:51:35.679Z,19.58
2023-08-08T11:52:43.442Z,19.79
2023-08-08T11:53:53.765Z,19.97
2023-08-08T11:54:56.848Z,20.14
2023-08-08T11:56:01.300Z,20.31
2023-08-08T11:57:04.412Z,20.47
2023-08-08T11:58:07.432Z,20.64
2023-08-08T11:59:10.570Z,20.79
2023-08-08T12:00:13.965Z,20.95
2023-08-08T12:01:18.235Z,21.13
2023-08-08T12:02:21.238Z,21.33
2023-08-08T12:03:27.108Z,21.53
2023-08-08T12:04:30.501Z,21.72
2023-08-08T12:05:39.116Z,21.86
2023-08-08T12:06:45.117Z,22.00
2023-08-08T12:07:48.343Z,22.15
2023-08-08T12:08:51.350Z,22.29
2023-08-08T12:09:54.203Z,22.42
2023-08-08T12:10:58.158Z,22.57
2023-08-08T12:12:02.109Z,22.75
2023-08-08T12:13:05.966Z,22.96
2023-08-08T12:14:15.008Z,23.23
2023-08-08T12:15:18.131Z,23.43
2023-08-08T12:16:21.024Z,23.53
2023-08-08T12:17:24.017Z,23.52
2023-08-08T12:18:27.250Z,23.47
2023-08-08T12:19:30.643Z,23.44
2023-08-08T12:20:33.687Z,23.42
2023-08-08T12:21:36.910Z,23.42
2023-08-08T12:22:39.715Z,23.45
2023-08-08T12:23:42.622Z,23.52
2023-08-08T12:24:45.614Z,23.65
2023-08-08T12:25:48.903Z,23.79
2023-08-08T12:26:51.940Z,23.91
2023-08-08T12:27:54.877Z,24.00
2023-08-08T12:28:58.033Z,23.99
2023-08-08T12:30:00.910Z,23.89
2023-08-08T12:31:04.000Z,23.77
2023-08-08T12:32:09.117Z,23.71
2023-08-08T12:33:12.240Z,23.76
2023-08-08T12:34:15.264Z,23.88
2023-08-08T12:35:18.250Z,24.08
2023-08-08T12:36:21.372Z,24.29
2023-08-08T12:37:25.166Z,24.51
2023-08-08T12:38:28.041Z,24.68
2023-08-08T12:39:31.232Z,24.77
2023-08-08T12:40:35.002Z,24.74
2023-08-08T12:41:38.005Z,24.70
2023-08-08T12:42:41.234Z,24.68
2023-08-08T12:43:44.489Z,24.73
2023-08-08T12:44:48.188Z,24.83
2023-08-08T12:45:51.019Z,24.93
2023-08-08T12:46:54.208Z,25.08
2023-08-08T12:47:57.152Z,25.27
2023-08-08T12:49:00.300Z,25.54
2023-08-08T12:50:04.017Z,25.90
2023-08-08T12:51:08.692Z,26.21
2023-08-08T12:52:11.625Z,26.42
2023-08-08T12:53:14.859Z,26.58
2023-08-08T12:54:17.788Z,26.73
2023-08-08T12:55:21.025Z,26.83
2023-08-08T12:56:24.043Z,26.80
2023-08-08T12:57:26.987Z,26.75
2023-08-08T12:58:29.824Z,26.81
2023-08-08T12:59:32.808Z,26.94
2023-08-08T13:00:35.914Z,27.16
2023-08-08T13:01:38.805Z,27.37
2023-08-08T13:02:42.109Z,27.48
2023-08-08T13:03:51.153Z,27.56
2023-08-08T13:04:58.857Z,27.66
2023-08-08T13:06:01.983Z,27.82
2023-08-08T13:07:05.287Z,27.91
2023-08-08T13:08:08.178Z,28.03
2023-08-08T13:09:11.666Z,28.11
2023-08-08T13:10:14.563Z,28.24
2023-08-08T13:11:17.681Z,28.41
2023-08-08T13:12:20.728Z,28.52
2023-08-08T13:13:26.185Z,28.63
2023-08-08T13:14:29.187Z,28.71
2023-08-08T13:15:32.010Z,28.76
2023-08-08T13:16:35.126Z,28.83
2023-08-08T13:17:38.347Z,28.95
2023-08-08T13:18:41.365Z,29.06
2023-08-08T13:19:44.272Z,29.14
2023-08-08T13:20:47.310Z,29.17
2023-08-08T13:21:51.533Z,29.07
2023-08-08T13:22:55.392Z,28.82
2023-08-08T13:23:58.831Z,28.47
2023-08-08T13:25:01.754Z,28.08
2023-08-08T13:26:04.881Z,27.66
2023-08-08T13:27:08.094Z,27.28
2023-08-08T13:28:11.076Z,26.95
2023-08-08T13:29:13.998Z,26.65
2023-08-08T13:30:17.784Z,26.39
2023-08-08T13:31:20.856Z,26.18
2023-08-08T13:32:24.238Z,26.05
2023-08-08T13:33:27.227Z,25.93
2023-08-08T13:34:30.160Z,25.67
2023-08-08T13:35:33.224Z,25.29
2023-08-08T13:36:36.316Z,24.94
2023-08-08T13:37:39.361Z,24.60
2023-08-08T13:38:42.259Z,24.31
2023-08-08T13:39:46.082Z,24.00
2023-08-08T13:40:48.982Z,23.75
2023-08-08T13:41:51.972Z,23.57
2023-08-08T13:42:55.091Z,23.43
2023-08-08T13:43:58.097Z,23.30
2023-08-08T13:45:01.288Z,23.14
2023-08-08T13:46:08.736Z,23.00
2023-08-08T13:47:11.789Z,22.80
2023-08-08T13:48:14.717Z,22.57
2023-08-08T13:49:17.729Z,22.32